Virner, California
Current Conditions -  °F | °C
As of 12:35 PM on Saturday 25 Oct 2014 (Local Time) from KPVF Reporting Station
Overcast Overcast  
Wind Chill: 44°   Ceiling: 200
Heat Index: 48°   Visibility: 1mi
Dew Point: 48°   Wind: 9mph
Humidity: 100%   Direction: 160°SSE
Pressure: 30.12"   Gusts: NA
Location:  38.9159°N, 120.725°W
Report Text: KPVF 251935Z AUTO 16008KT 1SM OVC002 09/09 A3012 RMK AO1 P0012
Loading
Personal Weather Stations






























Interactive Weather Map
Tropical Storm Tracking
New forecast layout! Learn more

10-Day Weather Forecast

Advertisements
Track Severe Weather on mobile